sensor_id;sensor_type;location;lat;lon;timestamp;P1;durP1;ratioP1;P2;durP2;ratioP2
49678;SDS011;35570;48.218;16.326;2023-07-31T00:00:27;1.27;;;0.98;;
49678;SDS011;35570;48.218;16.326;2023-07-31T00:02:53;1.83;;;1.00;;
49678;SDS011;35570;48.218;16.326;2023-07-31T00:05:19;1.70;;;1.10;;
49678;SDS011;35570;48.218;16.326;2023-07-31T00:07:45;2.17;;;1.02;;
49678;SDS011;35570;48.218;16.326;2023-07-31T00:10:10;1.60;;;0.90;;
49678;SDS011;35570;48.218;16.326;2023-07-31T00:12:37;2.20;;;1.20;;
49678;SDS011;35570;48.218;16.326;2023-07-31T00:15:03;2.85;;;1.02;;
49678;SDS011;35570;48.218;16.326;2023-07-31T00:17:29;2.00;;;1.00;;
49678;SDS011;35570;48.218;16.326;2023-07-31T00:19:55;2.20;;;1.10;;
49678;SDS011;35570;48.218;16.326;2023-07-31T00:22:21;3.63;;;1.20;;
49678;SDS011;35570;48.218;16.326;2023-07-31T00:24:47;2.38;;;0.90;;
49678;SDS011;35570;48.218;16.326;2023-07-31T00:27:12;1.38;;;1.08;;
49678;SDS011;35570;48.218;16.326;2023-07-31T00:29:38;1.30;;;1.13;;
49678;SDS011;35570;48.218;16.326;2023-07-31T00:32:04;2.25;;;0.90;;
49678;SDS011;35570;48.218;16.326;2023-07-31T00:34:30;2.72;;;1.08;;
49678;SDS011;35570;48.218;16.326;2023-07-31T00:36:55;3.08;;;1.10;;
49678;SDS011;35570;48.218;16.326;2023-07-31T00:39:21;1.80;;;1.00;;
49678;SDS011;35570;48.218;16.326;2023-07-31T00:41:47;2.78;;;1.20;;
49678;SDS011;35570;48.218;16.326;2023-07-31T00:44:12;2.13;;;1.10;;
49678;SDS011;35570;48.218;16.326;2023-07-31T00:46:38;2.70;;;1.00;;
49678;SDS011;35570;48.218;16.326;2023-07-31T00:49:04;1.80;;;1.10;;
49678;SDS011;35570;48.218;16.326;2023-07-31T00:51:30;3.78;;;1.17;;
49678;SDS011;35570;48.218;16.326;2023-07-31T00:53:56;1.23;;;1.00;;
49678;SDS011;35570;48.218;16.326;2023-07-31T00:56:22;3.58;;;1.10;;
49678;SDS011;35570;48.218;16.326;2023-07-31T00:58:48;2.58;;;1.13;;
49678;SDS011;35570;48.218;16.326;2023-07-31T01:01:15;3.30;;;1.20;;
49678;SDS011;35570;48.218;16.326;2023-07-31T01:03:41;2.55;;;1.17;;
49678;SDS011;35570;48.218;16.326;2023-07-31T01:08:44;1.33;;;1.00;;
49678;SDS011;35570;48.218;16.326;2023-07-31T01:11:25;2.08;;;1.00;;
49678;SDS011;35570;48.218;16.326;2023-07-31T01:13:54;1.98;;;1.35;;
49678;SDS011;35570;48.218;16.326;2023-07-31T01:16:20;2.45;;;1.00;;
49678;SDS011;35570;48.218;16.326;2023-07-31T01:18:46;2.03;;;1.00;;
49678;SDS011;35570;48.218;16.326;2023-07-31T01:26:47;2.00;;;1.02;;
49678;SDS011;35570;48.218;16.326;2023-07-31T01:29:23;2.72;;;0.82;;
49678;SDS011;35570;48.218;16.326;2023-07-31T01:31:57;2.40;;;0.95;;
49678;SDS011;35570;48.218;16.326;2023-07-31T01:34:26;1.60;;;0.80;;
49678;SDS011;35570;48.218;16.326;2023-07-31T01:36:53;2.10;;;1.10;;
49678;SDS011;35570;48.218;16.326;2023-07-31T01:39:20;2.17;;;1.23;;
49678;SDS011;35570;48.218;16.326;2023-07-31T01:41:46;2.28;;;0.90;;
49678;SDS011;35570;48.218;16.326;2023-07-31T01:44:11;4.90;;;1.83;;
49678;SDS011;35570;48.218;16.326;2023-07-31T01:46:37;2.25;;;1.05;;
49678;SDS011;35570;48.218;16.326;2023-07-31T01:49:03;1.88;;;0.77;;
49678;SDS011;35570;48.218;16.326;2023-07-31T01:51:30;0.95;;;0.82;;
49678;SDS011;35570;48.218;16.326;2023-07-31T01:53:59;3.22;;;1.00;;
49678;SDS011;35570;48.218;16.326;2023-07-31T01:56:25;1.77;;;1.00;;
49678;SDS011;35570;48.218;16.326;2023-07-31T01:58:50;1.45;;;0.80;;
49678;SDS011;35570;48.218;16.326;2023-07-31T02:01:16;4.43;;;1.00;;
49678;SDS011;35570;48.218;16.326;2023-07-31T02:03:42;1.70;;;0.90;;
49678;SDS011;35570;48.218;16.326;2023-07-31T02:06:07;3.40;;;1.17;;
49678;SDS011;35570;48.218;16.326;2023-07-31T02:08:33;1.90;;;1.00;;
49678;SDS011;35570;48.218;16.326;2023-07-31T02:10:58;1.30;;;1.13;;
49678;SDS011;35570;48.218;16.326;2023-07-31T02:13:24;1.70;;;1.10;;
49678;SDS011;35570;48.218;16.326;2023-07-31T02:15:50;1.70;;;0.95;;
49678;SDS011;35570;48.218;16.326;2023-07-31T02:18:16;2.55;;;1.25;;
49678;SDS011;35570;48.218;16.326;2023-07-31T02:20:41;2.92;;;1.20;;
49678;SDS011;35570;48.218;16.326;2023-07-31T02:23:07;1.67;;;1.10;;
49678;SDS011;35570;48.218;16.326;2023-07-31T02:25:32;2.55;;;1.10;;
49678;SDS011;35570;48.218;16.326;2023-07-31T02:27:58;3.10;;;1.10;;
49678;SDS011;35570;48.218;16.326;2023-07-31T02:30:24;5.00;;;1.20;;
49678;SDS011;35570;48.218;16.326;2023-07-31T02:32:49;1.88;;;1.00;;
49678;SDS011;35570;48.218;16.326;2023-07-31T02:35:15;2.08;;;0.95;;
49678;SDS011;35570;48.218;16.326;2023-07-31T02:37:41;2.35;;;1.10;;
49678;SDS011;35570;48.218;16.326;2023-07-31T02:40:07;1.38;;;1.10;;
49678;SDS011;35570;48.218;16.326;2023-07-31T02:42:34;2.95;;;1.33;;
49678;SDS011;35570;48.218;16.326;2023-07-31T02:44:59;2.42;;;1.40;;
49678;SDS011;35570;48.218;16.326;2023-07-31T02:47:25;2.03;;;1.20;;
49678;SDS011;35570;48.218;16.326;2023-07-31T02:49:50;3.10;;;1.50;;
49678;SDS011;35570;48.218;16.326;2023-07-31T02:52:16;1.90;;;1.30;;
49678;SDS011;35570;48.218;16.326;2023-07-31T02:54:41;2.20;;;1.17;;
49678;SDS011;35570;48.218;16.326;2023-07-31T02:57:07;2.10;;;1.10;;
49678;SDS011;35570;48.218;16.326;2023-07-31T02:59:33;3.20;;;1.20;;
49678;SDS011;35570;48.218;16.326;2023-07-31T03:01:59;3.95;;;1.38;;
49678;SDS011;35570;48.218;16.326;2023-07-31T03:04:24;1.90;;;1.10;;
49678;SDS011;35570;48.218;16.326;2023-07-31T03:06:50;2.10;;;1.40;;
49678;SDS011;35570;48.218;16.326;2023-07-31T03:09:15;2.67;;;1.40;;
49678;SDS011;35570;48.218;16.326;2023-07-31T03:11:41;1.92;;;1.20;;
49678;SDS011;35570;48.218;16.326;2023-07-31T03:14:07;1.73;;;1.13;;
49678;SDS011;35570;48.218;16.326;2023-07-31T03:16:32;2.55;;;1.40;;
49678;SDS011;35570;48.218;16.326;2023-07-31T03:18:58;2.45;;;1.30;;
49678;SDS011;35570;48.218;16.326;2023-07-31T03:21:23;2.00;;;1.20;;
49678;SDS011;35570;48.218;16.326;2023-07-31T03:23:49;2.13;;;1.63;;
49678;SDS011;35570;48.218;16.326;2023-07-31T03:26:15;2.85;;;1.20;;
49678;SDS011;35570;48.218;16.326;2023-07-31T03:28:40;2.90;;;1.35;;
49678;SDS011;35570;48.218;16.326;2023-07-31T03:31:06;2.53;;;1.35;;
49678;SDS011;35570;48.218;16.326;2023-07-31T03:33:33;1.70;;;1.23;;
49678;SDS011;35570;48.218;16.326;2023-07-31T03:35:59;2.03;;;1.30;;
49678;SDS011;35570;48.218;16.326;2023-07-31T03:38:24;3.10;;;1.45;;
49678;SDS011;35570;48.218;16.326;2023-07-31T03:40:50;2.03;;;1.60;;
49678;SDS011;35570;48.218;16.326;2023-07-31T03:43:16;3.10;;;1.35;;
49678;SDS011;35570;48.218;16.326;2023-07-31T03:45:41;2.08;;;1.35;;
49678;SDS011;35570;48.218;16.326;2023-07-31T03:48:07;4.53;;;1.70;;
49678;SDS011;35570;48.218;16.326;2023-07-31T03:50:33;3.10;;;1.60;;
49678;SDS011;35570;48.218;16.326;2023-07-31T03:52:59;3.85;;;1.58;;
49678;SDS011;35570;48.218;16.326;2023-07-31T03:55:24;2.67;;;1.60;;
49678;SDS011;35570;48.218;16.326;2023-07-31T03:57:50;2.78;;;1.60;;
49678;SDS011;35570;48.218;16.326;2023-07-31T04:00:16;1.90;;;1.50;;
49678;SDS011;35570;48.218;16.326;2023-07-31T04:02:42;2.58;;;1.67;;
49678;SDS011;35570;48.218;16.326;2023-07-31T04:05:07;2.60;;;1.45;;
49678;SDS011;35570;48.218;16.326;2023-07-31T04:07:33;3.28;;;1.70;;
49678;SDS011;35570;48.218;16.326;2023-07-31T04:09:59;2.20;;;1.60;;
49678;SDS011;35570;48.218;16.326;2023-07-31T04:12:25;2.63;;;1.70;;
49678;SDS011;35570;48.218;16.326;2023-07-31T04:14:50;2.60;;;1.55;;
49678;SDS011;35570;48.218;16.326;2023-07-31T04:17:19;4.35;;;1.50;;
49678;SDS011;35570;48.218;16.326;2023-07-31T04:19:45;2.50;;;1.73;;
49678;SDS011;35570;48.218;16.326;2023-07-31T04:22:10;3.65;;;1.38;;
49678;SDS011;35570;48.218;16.326;2023-07-31T04:24:36;2.83;;;1.58;;
49678;SDS011;35570;48.218;16.326;2023-07-31T04:27:02;5.90;;;1.73;;
49678;SDS011;35570;48.218;16.326;2023-07-31T04:29:27;5.60;;;1.70;;
49678;SDS011;35570;48.218;16.326;2023-07-31T04:31:53;1.73;;;1.45;;
49678;SDS011;35570;48.218;16.326;2023-07-31T04:34:19;2.58;;;1.35;;
49678;SDS011;35570;48.218;16.326;2023-07-31T04:36:44;2.03;;;1.50;;
49678;SDS011;35570;48.218;16.326;2023-07-31T04:39:10;4.60;;;1.95;;
49678;SDS011;35570;48.218;16.326;2023-07-31T04:41:35;3.08;;;1.67;;
49678;SDS011;35570;48.218;16.326;2023-07-31T04:44:01;2.85;;;1.60;;
49678;SDS011;35570;48.218;16.326;2023-07-31T04:46:28;3.95;;;1.60;;
49678;SDS011;35570;48.218;16.326;2023-07-31T04:48:54;3.05;;;1.50;;
49678;SDS011;35570;48.218;16.326;2023-07-31T04:51:20;2.13;;;1.63;;
49678;SDS011;35570;48.218;16.326;2023-07-31T04:53:46;1.90;;;1.45;;
49678;SDS011;35570;48.218;16.326;2023-07-31T04:56:11;2.25;;;1.45;;
49678;SDS011;35570;48.218;16.326;2023-07-31T04:58:37;3.95;;;1.67;;
49678;SDS011;35570;48.218;16.326;2023-07-31T05:01:03;2.33;;;1.70;;
49678;SDS011;35570;48.218;16.326;2023-07-31T05:03:28;2.90;;;1.60;;
49678;SDS011;35570;48.218;16.326;2023-07-31T05:05:54;2.58;;;1.70;;
49678;SDS011;35570;48.218;16.326;2023-07-31T05:08:20;2.25;;;1.48;;
49678;SDS011;35570;48.218;16.326;2023-07-31T05:10:45;1.90;;;1.58;;
49678;SDS011;35570;48.218;16.326;2023-07-31T05:13:11;3.00;;;1.60;;
49678;SDS011;35570;48.218;16.326;2023-07-31T05:15:36;4.30;;;1.60;;
49678;SDS011;35570;48.218;16.326;2023-07-31T05:18:03;1.85;;;1.35;;
49678;SDS011;35570;48.218;16.326;2023-07-31T05:20:28;3.17;;;1.60;;
49678;SDS011;35570;48.218;16.326;2023-07-31T05:22:54;3.55;;;1.70;;
49678;SDS011;35570;48.218;16.326;2023-07-31T05:25:20;2.63;;;1.88;;
49678;SDS011;35570;48.218;16.326;2023-07-31T05:27:45;4.93;;;1.90;;
49678;SDS011;35570;48.218;16.326;2023-07-31T05:30:11;4.45;;;1.90;;
49678;SDS011;35570;48.218;16.326;2023-07-31T05:32:36;2.38;;;1.70;;
49678;SDS011;35570;48.218;16.326;2023-07-31T05:35:02;4.35;;;2.00;;
49678;SDS011;35570;48.218;16.326;2023-07-31T05:37:28;8.57;;;2.00;;
49678;SDS011;35570;48.218;16.326;2023-07-31T05:39:54;4.47;;;1.77;;
49678;SDS011;35570;48.218;16.326;2023-07-31T05:42:19;4.15;;;1.90;;
49678;SDS011;35570;48.218;16.326;2023-07-31T05:44:45;3.67;;;2.55;;
49678;SDS011;35570;48.218;16.326;2023-07-31T05:47:10;6.45;;;4.50;;
49678;SDS011;35570;48.218;16.326;2023-07-31T05:49:36;4.53;;;2.38;;
49678;SDS011;35570;48.218;16.326;2023-07-31T05:52:02;3.55;;;1.92;;
49678;SDS011;35570;48.218;16.326;2023-07-31T05:54:28;3.30;;;1.77;;
49678;SDS011;35570;48.218;16.326;2023-07-31T05:56:53;3.20;;;1.55;;
49678;SDS011;35570;48.218;16.326;2023-07-31T05:59:19;2.60;;;1.50;;
49678;SDS011;35570;48.218;16.326;2023-07-31T06:01:45;2.67;;;1.42;;
49678;SDS011;35570;48.218;16.326;2023-07-31T06:04:11;2.97;;;1.60;;
49678;SDS011;35570;48.218;16.326;2023-07-31T06:06:37;3.83;;;2.30;;
49678;SDS011;35570;48.218;16.326;2023-07-31T06:09:02;5.72;;;3.25;;
49678;SDS011;35570;48.218;16.326;2023-07-31T06:11:28;4.28;;;2.00;;
49678;SDS011;35570;48.218;16.326;2023-07-31T06:13:54;5.18;;;1.88;;
49678;SDS011;35570;48.218;16.326;2023-07-31T06:16:20;3.10;;;1.50;;
49678;SDS011;35570;48.218;16.326;2023-07-31T06:18:46;5.30;;;1.70;;
49678;SDS011;35570;48.218;16.326;2023-07-31T06:21:12;3.60;;;2.00;;
49678;SDS011;35570;48.218;16.326;2023-07-31T06:23:38;3.03;;;1.42;;
49678;SDS011;35570;48.218;16.326;2023-07-31T06:26:03;3.47;;;1.60;;
49678;SDS011;35570;48.218;16.326;2023-07-31T06:28:29;4.88;;;1.58;;
49678;SDS011;35570;48.218;16.326;2023-07-31T06:30:56;3.25;;;2.28;;
49678;SDS011;35570;48.218;16.326;2023-07-31T06:33:26;3.22;;;2.28;;
49678;SDS011;35570;48.218;16.326;2023-07-31T06:35:52;8.15;;;4.00;;
49678;SDS011;35570;48.218;16.326;2023-07-31T06:38:24;7.65;;;5.35;;
49678;SDS011;35570;48.218;16.326;2023-07-31T06:40:51;6.88;;;5.47;;
49678;SDS011;35570;48.218;16.326;2023-07-31T06:43:17;5.35;;;3.10;;
49678;SDS011;35570;48.218;16.326;2023-07-31T06:45:43;3.67;;;1.90;;
49678;SDS011;35570;48.218;16.326;2023-07-31T06:48:08;4.22;;;1.58;;
49678;SDS011;35570;48.218;16.326;2023-07-31T06:50:34;4.50;;;1.92;;
49678;SDS011;35570;48.218;16.326;2023-07-31T06:53:00;9.57;;;4.70;;
49678;SDS011;35570;48.218;16.326;2023-07-31T06:55:25;5.00;;;2.75;;
49678;SDS011;35570;48.218;16.326;2023-07-31T06:57:53;4.57;;;2.70;;
49678;SDS011;35570;48.218;16.326;2023-07-31T07:00:20;6.57;;;5.30;;
49678;SDS011;35570;48.218;16.326;2023-07-31T07:02:46;5.50;;;2.08;;
49678;SDS011;35570;48.218;16.326;2023-07-31T07:05:12;5.30;;;2.10;;
49678;SDS011;35570;48.218;16.326;2023-07-31T07:07:38;4.18;;;1.98;;
49678;SDS011;35570;48.218;16.326;2023-07-31T07:10:04;3.92;;;1.80;;
49678;SDS011;35570;48.218;16.326;2023-07-31T07:12:31;3.35;;;1.48;;
49678;SDS011;35570;48.218;16.326;2023-07-31T07:14:57;3.83;;;1.42;;
49678;SDS011;35570;48.218;16.326;2023-07-31T07:17:23;4.07;;;1.65;;
49678;SDS011;35570;48.218;16.326;2023-07-31T07:19:50;3.75;;;1.30;;
49678;SDS011;35570;48.218;16.326;2023-07-31T07:22:15;5.20;;;1.60;;
49678;SDS011;35570;48.218;16.326;2023-07-31T07:24:41;3.88;;;2.10;;
49678;SDS011;35570;48.218;16.326;2023-07-31T07:27:07;6.13;;;1.50;;
49678;SDS011;35570;48.218;16.326;2023-07-31T07:29:33;3.08;;;1.30;;
49678;SDS011;35570;48.218;16.326;2023-07-31T07:31:59;4.97;;;1.52;;
49678;SDS011;35570;48.218;16.326;2023-07-31T07:34:28;5.07;;;2.80;;
49678;SDS011;35570;48.218;16.326;2023-07-31T07:36:54;5.22;;;1.50;;
49678;SDS011;35570;48.218;16.326;2023-07-31T07:39:20;5.45;;;2.60;;
49678;SDS011;35570;48.218;16.326;2023-07-31T07:41:46;3.95;;;1.67;;
49678;SDS011;35570;48.218;16.326;2023-07-31T07:44:12;6.35;;;3.50;;
49678;SDS011;35570;48.218;16.326;2023-07-31T07:46:38;3.58;;;1.50;;
49678;SDS011;35570;48.218;16.326;2023-07-31T07:49:04;2.90;;;1.20;;
49678;SDS011;35570;48.218;16.326;2023-07-31T07:51:30;2.83;;;1.20;;
49678;SDS011;35570;48.218;16.326;2023-07-31T07:53:59;4.43;;;1.65;;
49678;SDS011;35570;48.218;16.326;2023-07-31T07:56:26;2.55;;;1.33;;
49678;SDS011;35570;48.218;16.326;2023-07-31T07:58:52;4.60;;;1.67;;
49678;SDS011;35570;48.218;16.326;2023-07-31T08:01:18;4.18;;;1.70;;
49678;SDS011;35570;48.218;16.326;2023-07-31T08:03:44;3.20;;;1.23;;
49678;SDS011;35570;48.218;16.326;2023-07-31T08:06:10;3.30;;;1.70;;
49678;SDS011;35570;48.218;16.326;2023-07-31T08:08:36;3.10;;;1.20;;
49678;SDS011;35570;48.218;16.326;2023-07-31T08:11:02;9.10;;;4.28;;
49678;SDS011;35570;48.218;16.326;2023-07-31T08:13:28;7.75;;;3.13;;
49678;SDS011;35570;48.218;16.326;2023-07-31T08:15:54;6.10;;;2.33;;
49678;SDS011;35570;48.218;16.326;2023-07-31T08:18:19;3.20;;;1.73;;
49678;SDS011;35570;48.218;16.326;2023-07-31T08:20:45;7.50;;;1.35;;
49678;SDS011;35570;48.218;16.326;2023-07-31T08:23:11;3.33;;;1.30;;
49678;SDS011;35570;48.218;16.326;2023-07-31T08:25:37;2.28;;;1.20;;
49678;SDS011;35570;48.218;16.326;2023-07-31T08:28:03;5.57;;;1.48;;
49678;SDS011;35570;48.218;16.326;2023-07-31T08:30:30;5.18;;;1.52;;
49678;SDS011;35570;48.218;16.326;2023-07-31T08:32:56;3.58;;;1.48;;
49678;SDS011;35570;48.218;16.326;2023-07-31T08:35:22;2.88;;;1.20;;
49678;SDS011;35570;48.218;16.326;2023-07-31T08:37:49;3.35;;;1.17;;
49678;SDS011;35570;48.218;16.326;2023-07-31T08:40:14;4.00;;;1.50;;
49678;SDS011;35570;48.218;16.326;2023-07-31T08:42:46;3.13;;;1.48;;
49678;SDS011;35570;48.218;16.326;2023-07-31T08:45:13;3.67;;;1.20;;
49678;SDS011;35570;48.218;16.326;2023-07-31T08:47:42;3.60;;;1.42;;
49678;SDS011;35570;48.218;16.326;2023-07-31T08:50:10;3.45;;;1.35;;
49678;SDS011;35570;48.218;16.326;2023-07-31T08:52:38;4.53;;;1.30;;
49678;SDS011;35570;48.218;16.326;2023-07-31T08:55:04;2.40;;;1.00;;
49678;SDS011;35570;48.218;16.326;2023-07-31T08:57:30;5.82;;;1.95;;
49678;SDS011;35570;48.218;16.326;2023-07-31T08:59:59;4.63;;;2.13;;
49678;SDS011;35570;48.218;16.326;2023-07-31T09:02:25;3.67;;;1.30;;
49678;SDS011;35570;48.218;16.326;2023-07-31T09:04:59;2.58;;;1.35;;
49678;SDS011;35570;48.218;16.326;2023-07-31T09:07:27;2.63;;;1.50;;
49678;SDS011;35570;48.218;16.326;2023-07-31T09:09:54;3.05;;;1.42;;
49678;SDS011;35570;48.218;16.326;2023-07-31T09:12:20;4.32;;;1.77;;
49678;SDS011;35570;48.218;16.326;2023-07-31T09:14:45;5.28;;;1.75;;
49678;SDS011;35570;48.218;16.326;2023-07-31T09:17:12;3.42;;;1.75;;
49678;SDS011;35570;48.218;16.326;2023-07-31T09:19:37;3.78;;;1.52;;
49678;SDS011;35570;48.218;16.326;2023-07-31T09:22:03;3.58;;;1.13;;
49678;SDS011;35570;48.218;16.326;2023-07-31T09:24:32;2.50;;;1.30;;
49678;SDS011;35570;48.218;16.326;2023-07-31T09:26:59;6.15;;;3.03;;
49678;SDS011;35570;48.218;16.326;2023-07-31T09:29:27;8.68;;;5.30;;
49678;SDS011;35570;48.218;16.326;2023-07-31T09:31:54;5.50;;;3.00;;
49678;SDS011;35570;48.218;16.326;2023-07-31T09:34:20;4.60;;;3.78;;
49678;SDS011;35570;48.218;16.326;2023-07-31T09:37:02;3.50;;;1.98;;
49678;SDS011;35570;48.218;16.326;2023-07-31T09:39:29;4.28;;;1.85;;
49678;SDS011;35570;48.218;16.326;2023-07-31T09:41:55;3.65;;;1.75;;
49678;SDS011;35570;48.218;16.326;2023-07-31T09:44:21;3.33;;;2.08;;
49678;SDS011;35570;48.218;16.326;2023-07-31T09:47:04;3.22;;;2.22;;
49678;SDS011;35570;48.218;16.326;2023-07-31T09:49:30;3.45;;;1.40;;
49678;SDS011;35570;48.218;16.326;2023-07-31T09:51:58;3.08;;;1.35;;
49678;SDS011;35570;48.218;16.326;2023-07-31T09:54:24;4.38;;;3.30;;
49678;SDS011;35570;48.218;16.326;2023-07-31T09:56:50;4.53;;;1.98;;
49678;SDS011;35570;48.218;16.326;2023-07-31T09:59:18;4.90;;;1.40;;
49678;SDS011;35570;48.218;16.326;2023-07-31T10:01:45;3.85;;;3.28;;
49678;SDS011;35570;48.218;16.326;2023-07-31T10:04:11;6.18;;;3.80;;
49678;SDS011;35570;48.218;16.326;2023-07-31T10:06:38;5.15;;;2.17;;
49678;SDS011;35570;48.218;16.326;2023-07-31T10:09:05;3.13;;;1.90;;
49678;SDS011;35570;48.218;16.326;2023-07-31T10:11:53;5.10;;;1.75;;
49678;SDS011;35570;48.218;16.326;2023-07-31T10:14:23;3.95;;;2.20;;
49678;SDS011;35570;48.218;16.326;2023-07-31T10:16:49;3.55;;;2.00;;
49678;SDS011;35570;48.218;16.326;2023-07-31T10:19:17;3.35;;;1.42;;
49678;SDS011;35570;48.218;16.326;2023-07-31T10:21:43;5.78;;;1.10;;
49678;SDS011;35570;48.218;16.326;2023-07-31T10:24:10;3.80;;;1.50;;
49678;SDS011;35570;48.218;16.326;2023-07-31T10:26:37;2.95;;;1.20;;
49678;SDS011;35570;48.218;16.326;2023-07-31T10:29:04;3.97;;;1.67;;
49678;SDS011;35570;48.218;16.326;2023-07-31T10:31:31;3.85;;;1.08;;
49678;SDS011;35570;48.218;16.326;2023-07-31T10:33:57;4.88;;;1.33;;
49678;SDS011;35570;48.218;16.326;2023-07-31T10:36:28;3.85;;;1.33;;
49678;SDS011;35570;48.218;16.326;2023-07-31T10:38:54;3.90;;;1.50;;
49678;SDS011;35570;48.218;16.326;2023-07-31T10:41:30;3.17;;;1.63;;
49678;SDS011;35570;48.218;16.326;2023-07-31T10:44:00;6.25;;;4.20;;
49678;SDS011;35570;48.218;16.326;2023-07-31T10:46:29;11.90;;;9.63;;
49678;SDS011;35570;48.218;16.326;2023-07-31T10:48:59;7.07;;;4.20;;
49678;SDS011;35570;48.218;16.326;2023-07-31T10:51:32;7.57;;;4.20;;
49678;SDS011;35570;48.218;16.326;2023-07-31T10:54:13;4.10;;;1.50;;
49678;SDS011;35570;48.218;16.326;2023-07-31T10:56:44;3.83;;;1.52;;
49678;SDS011;35570;48.218;16.326;2023-07-31T10:59:11;3.05;;;1.45;;
49678;SDS011;35570;48.218;16.326;2023-07-31T11:01:51;3.97;;;1.05;;
49678;SDS011;35570;48.218;16.326;2023-07-31T11:04:25;2.90;;;1.10;;
49678;SDS011;35570;48.218;16.326;2023-07-31T11:06:55;4.70;;;1.50;;
49678;SDS011;35570;48.218;16.326;2023-07-31T11:09:27;4.63;;;1.73;;
49678;SDS011;35570;48.218;16.326;2023-07-31T11:11:55;4.30;;;1.75;;
49678;SDS011;35570;48.218;16.326;2023-07-31T11:14:21;3.78;;;1.23;;
49678;SDS011;35570;48.218;16.326;2023-07-31T11:16:49;8.60;;;4.18;;
49678;SDS011;35570;48.218;16.326;2023-07-31T11:19:20;8.38;;;4.80;;
49678;SDS011;35570;48.218;16.326;2023-07-31T11:21:48;3.97;;;2.17;;
49678;SDS011;35570;48.218;16.326;2023-07-31T11:24:14;5.68;;;2.85;;
49678;SDS011;35570;48.218;16.326;2023-07-31T11:26:47;7.28;;;3.92;;
49678;SDS011;35570;48.218;16.326;2023-07-31T11:29:22;3.42;;;2.13;;
49678;SDS011;35570;48.218;16.326;2023-07-31T11:31:53;2.13;;;1.23;;
49678;SDS011;35570;48.218;16.326;2023-07-31T11:34:19;4.00;;;1.20;;
49678;SDS011;35570;48.218;16.326;2023-07-31T11:36:55;4.10;;;1.30;;
49678;SDS011;35570;48.218;16.326;2023-07-31T11:39:20;3.25;;;1.40;;
49678;SDS011;35570;48.218;16.326;2023-07-31T11:41:46;4.70;;;1.27;;
49678;SDS011;35570;48.218;16.326;2023-07-31T11:44:12;3.88;;;1.10;;
49678;SDS011;35570;48.218;16.326;2023-07-31T11:46:38;2.42;;;1.20;;
49678;SDS011;35570;48.218;16.326;2023-07-31T11:49:04;3.72;;;1.40;;
49678;SDS011;35570;48.218;16.326;2023-07-31T11:51:30;4.55;;;1.70;;
49678;SDS011;35570;48.218;16.326;2023-07-31T11:53:57;3.28;;;1.13;;
49678;SDS011;35570;48.218;16.326;2023-07-31T11:56:25;3.92;;;1.55;;
49678;SDS011;35570;48.218;16.326;2023-07-31T11:58:56;3.78;;;1.40;;
49678;SDS011;35570;48.218;16.326;2023-07-31T12:01:23;2.83;;;1.45;;
49678;SDS011;35570;48.218;16.326;2023-07-31T12:03:50;2.10;;;1.17;;
49678;SDS011;35570;48.218;16.326;2023-07-31T12:06:17;3.97;;;2.47;;
49678;SDS011;35570;48.218;16.326;2023-07-31T12:08:42;3.10;;;2.15;;
49678;SDS011;35570;48.218;16.326;2023-07-31T12:11:09;4.85;;;2.90;;
49678;SDS011;35570;48.218;16.326;2023-07-31T12:13:35;6.50;;;1.75;;
49678;SDS011;35570;48.218;16.326;2023-07-31T12:16:01;6.30;;;3.40;;
49678;SDS011;35570;48.218;16.326;2023-07-31T12:18:28;5.20;;;2.95;;
49678;SDS011;35570;48.218;16.326;2023-07-31T12:20:58;4.57;;;2.10;;
49678;SDS011;35570;48.218;16.326;2023-07-31T12:23:26;8.00;;;1.75;;
49678;SDS011;35570;48.218;16.326;2023-07-31T12:28:42;4.53;;;1.33;;
49678;SDS011;35570;48.218;16.326;2023-07-31T12:31:10;4.90;;;1.67;;
49678;SDS011;35570;48.218;16.326;2023-07-31T12:33:40;10.75;;;8.63;;
49678;SDS011;35570;48.218;16.326;2023-07-31T12:36:08;7.65;;;5.50;;
49678;SDS011;35570;48.218;16.326;2023-07-31T12:38:35;7.10;;;3.33;;
49678;SDS011;35570;48.218;16.326;2023-07-31T12:41:00;6.43;;;3.38;;
49678;SDS011;35570;48.218;16.326;2023-07-31T12:43:26;3.05;;;1.60;;
49678;SDS011;35570;48.218;16.326;2023-07-31T12:45:53;4.85;;;1.10;;
49678;SDS011;35570;48.218;16.326;2023-07-31T12:48:19;3.97;;;3.30;;
49678;SDS011;35570;48.218;16.326;2023-07-31T12:50:45;2.63;;;1.42;;
49678;SDS011;35570;48.218;16.326;2023-07-31T12:53:11;2.85;;;1.30;;
49678;SDS011;35570;48.218;16.326;2023-07-31T12:55:36;11.68;;;7.00;;
49678;SDS011;35570;48.218;16.326;2023-07-31T12:58:02;12.23;;;8.68;;
49678;SDS011;35570;48.218;16.326;2023-07-31T13:00:28;12.73;;;7.63;;
49678;SDS011;35570;48.218;16.326;2023-07-31T13:02:54;5.35;;;3.05;;
49678;SDS011;35570;48.218;16.326;2023-07-31T13:05:19;4.70;;;2.20;;
49678;SDS011;35570;48.218;16.326;2023-07-31T13:07:45;2.58;;;1.60;;
49678;SDS011;35570;48.218;16.326;2023-07-31T13:10:11;3.30;;;1.30;;
49678;SDS011;35570;48.218;16.326;2023-07-31T13:12:37;2.50;;;1.30;;
49678;SDS011;35570;48.218;16.326;2023-07-31T13:15:04;5.97;;;3.28;;
49678;SDS011;35570;48.218;16.326;2023-07-31T13:17:30;4.38;;;2.05;;
49678;SDS011;35570;48.218;16.326;2023-07-31T13:19:55;2.00;;;1.10;;
49678;SDS011;35570;48.218;16.326;2023-07-31T13:22:21;3.55;;;1.20;;
49678;SDS011;35570;48.218;16.326;2023-07-31T13:24:47;2.15;;;1.30;;
49678;SDS011;35570;48.218;16.326;2023-07-31T13:27:13;2.90;;;1.30;;
49678;SDS011;35570;48.218;16.326;2023-07-31T13:29:41;2.53;;;1.25;;
49678;SDS011;35570;48.218;16.326;2023-07-31T13:32:07;2.30;;;1.20;;
49678;SDS011;35570;48.218;16.326;2023-07-31T13:34:33;2.17;;;0.90;;
49678;SDS011;35570;48.218;16.326;2023-07-31T13:36:58;2.17;;;1.10;;
49678;SDS011;35570;48.218;16.326;2023-07-31T13:39:24;3.50;;;1.00;;
49678;SDS011;35570;48.218;16.326;2023-07-31T13:41:49;3.15;;;1.20;;
49678;SDS011;35570;48.218;16.326;2023-07-31T13:44:15;2.88;;;1.20;;
49678;SDS011;35570;48.218;16.326;2023-07-31T13:46:41;2.47;;;1.10;;
49678;SDS011;35570;48.218;16.326;2023-07-31T13:49:06;2.20;;;1.00;;
49678;SDS011;35570;48.218;16.326;2023-07-31T13:51:32;3.03;;;1.15;;
49678;SDS011;35570;48.218;16.326;2023-07-31T13:53:57;4.20;;;1.40;;
49678;SDS011;35570;48.218;16.326;2023-07-31T13:56:23;3.40;;;1.23;;
49678;SDS011;35570;48.218;16.326;2023-07-31T13:58:49;2.03;;;1.08;;
49678;SDS011;35570;48.218;16.326;2023-07-31T14:01:14;2.95;;;1.20;;
49678;SDS011;35570;48.218;16.326;2023-07-31T14:03:40;6.85;;;1.77;;
49678;SDS011;35570;48.218;16.326;2023-07-31T14:06:05;3.00;;;1.27;;
49678;SDS011;35570;48.218;16.326;2023-07-31T14:08:31;2.55;;;1.17;;
49678;SDS011;35570;48.218;16.326;2023-07-31T14:10:57;1.90;;;1.17;;
49678;SDS011;35570;48.218;16.326;2023-07-31T14:13:22;1.92;;;1.10;;
49678;SDS011;35570;48.218;16.326;2023-07-31T14:15:48;3.15;;;1.10;;
49678;SDS011;35570;48.218;16.326;2023-07-31T14:18:14;1.70;;;1.13;;
49678;SDS011;35570;48.218;16.326;2023-07-31T14:20:39;2.05;;;1.10;;
49678;SDS011;35570;48.218;16.326;2023-07-31T14:23:05;2.58;;;1.05;;
49678;SDS011;35570;48.218;16.326;2023-07-31T14:25:30;2.97;;;1.15;;
49678;SDS011;35570;48.218;16.326;2023-07-31T14:27:56;3.38;;;1.50;;
49678;SDS011;35570;48.218;16.326;2023-07-31T14:30:22;1.65;;;1.10;;
49678;SDS011;35570;48.218;16.326;2023-07-31T14:32:48;4.35;;;1.73;;
49678;SDS011;35570;48.218;16.326;2023-07-31T14:35:13;1.75;;;1.58;;
49678;SDS011;35570;48.218;16.326;2023-07-31T14:37:42;2.70;;;1.60;;
49678;SDS011;35570;48.218;16.326;2023-07-31T14:40:09;2.33;;;0.98;;